Jomo Kenyatta International Airport

Airport
ICAO code: 
HKJK
IATA Code: 
NBO
Summary
ICAO Region: 
AFI
Territory: 
Location: 
Embakasi, Nairobi
Serving: 
Nairobi
Elevation: 
5330 ft
Coordinates: 
Aerial View: 
1° 19' 4.548" S, 36° 55' 45.228" E
Metar
Observation
HKJK 201030Z 11008KT 080V180 9999 SCT025 BKN250 27/10 Q1019 NOSIG
Station
Nairobi/Jomo Kenyatta Airport TWR/APP/NOF/Civil Airlines
Date/Time
2022-01-20 10:30:00
Wind direction
110°
Wind speed
08 kts
Lowest cloud amount
scattered clouds
Temperature
27°C
Dew point
10°C
Humidity
34%
QNH
1019 hPa
Weather condition
n/a

International airport serving Nairobi, Kenya.

Climatology

Sub-tropical Highland climate (Köppen climate classification Cwb)

Runways

Designator Length Width Surface Rops
6/24 4117 45 ASP Yes/Yes
Airport map: 
Aerial View: 

Accidents and Serious Incidents at or in the vicinity of HKJK

SKYbrary Partners:

Safety knowledge contributed by: